aviador You're here:

CYEG Decoded Metar

EDMONTON in AB, CANADA
Report Time2017-11-23 22:00:00
UTC Time2017-11-23 22:12:26
Flight Rules vfr VFR
Wind250° at 08 kt
W.Decomp.*RWY 20: 6.7 kt HW 4.4 kt RCW
RWY 30: 3.1 kt HW 7.4 kt LCW
W.Rank250° ranks 18
Current wind is above 250° avg. (6.0)
Visibility9999 m
Phenomena:N/A
Clouds:Few 140 Hf
Broken 180 Hf
Broken 230 Hf
Expected CloudBase > 1,200 ft AGL from Temp-Dew spread
Ceiling18,000 ft
Temp03°C (ISA -7)
Dew Point00°C (81% RH)
AAT-1.9°C
QNH992 hPa
Density Alt2,303 ft
Elevation2,372 ft
Report Wrong Elevation
Raw Report
CYEG 232200Z 25008KT 15SM FEW140 BKN180 BKN230 03/00 A2929 RMK
AC1AS4CI1 SLP941=

Extra information for CYEG:More info

Metar Taf Metar & Taf Last 4 Metars F.Rules Stats Wind Profile Meteogram Temp Stats Airport Information Weather charts Add Link Nearby VenuesMetar ALERT Operation Metar Decoded Social comments